createdAt,value
2023-03-08T00:00:02.976Z,84.11
2023-03-08T00:01:02.964Z,83.59
2023-03-08T00:02:02.955Z,84.49
2023-03-08T00:03:02.966Z,83.66
2023-03-08T00:04:03.058Z,84.01
2023-03-08T00:05:02.968Z,85.15
2023-03-08T00:06:02.917Z,84.39
2023-03-08T00:07:02.905Z,84.66
2023-03-08T00:09:02.876Z,83.31
2023-03-08T00:11:02.860Z,84.32
2023-03-08T00:12:02.847Z,85.46
2023-03-08T00:19:02.913Z,82.80
2023-03-08T00:20:02.765Z,83.63
2023-03-08T00:21:02.755Z,83.17
2023-03-08T00:26:02.695Z,81.76
2023-03-08T00:27:02.684Z,82.83
2023-03-08T00:28:02.680Z,83.45
2023-03-08T00:29:02.729Z,83.73
2023-03-08T00:30:02.656Z,83.89
2023-03-08T00:31:02.714Z,83.06
2023-03-08T00:32:02.637Z,82.75
2023-03-08T00:33:02.623Z,82.92
2023-03-08T00:34:02.616Z,81.99
2023-03-08T00:35:02.635Z,81.09
2023-03-08T00:37:02.587Z,82.44
2023-03-08T00:40:02.566Z,83.73
2023-03-08T00:41:02.540Z,83.83
2023-03-08T00:43:02.518Z,83.83
2023-03-08T00:44:02.512Z,83.83
2023-03-08T00:45:02.503Z,84.52
2023-03-08T00:46:02.489Z,84.21
2023-03-08T00:47:02.591Z,83.00
2023-03-08T00:48:02.470Z,84.60
2023-03-08T00:49:02.455Z,85.18
2023-03-08T00:52:02.426Z,84.53
2023-03-08T00:53:02.415Z,85.11
2023-03-08T00:54:02.404Z,85.11
2023-03-08T00:55:02.394Z,85.53
2023-03-08T00:56:02.384Z,85.01
2023-03-08T00:57:02.371Z,84.91
2023-03-08T00:58:02.382Z,85.01
2023-03-08T00:59:02.369Z,85.22
2023-03-08T01:00:02.359Z,84.97
2023-03-08T01:01:02.437Z,84.93
2023-03-08T01:02:02.332Z,84.48
2023-03-08T01:03:02.307Z,82.40
2023-03-08T01:04:02.375Z,83.03
2023-03-08T01:05:02.297Z,82.30
2023-03-08T01:06:02.297Z,82.40
2023-03-08T01:07:02.283Z,81.92
2023-03-08T01:08:02.255Z,82.92
2023-03-08T01:09:02.246Z,82.96
2023-03-08T01:12:02.211Z,83.03
2023-03-08T01:13:02.199Z,82.51
2023-03-08T01:14:02.187Z,82.55
2023-03-08T01:15:02.179Z,82.44
2023-03-08T01:16:02.170Z,83.11
2023-03-08T01:17:02.153Z,84.25
2023-03-08T01:18:02.147Z,83.89
2023-03-08T01:19:02.142Z,83.31
2023-03-08T01:23:02.114Z,85.43
2023-03-08T01:24:02.082Z,85.92
2023-03-08T01:25:02.066Z,87.75
2023-03-08T01:26:02.064Z,87.34
2023-03-08T01:27:02.048Z,87.71
2023-03-08T01:28:02.050Z,86.84
2023-03-08T01:29:02.027Z,86.12
2023-03-08T01:30:02.017Z,84.87
2023-03-08T01:31:02.010Z,85.60
2023-03-08T01:32:01.999Z,85.43
2023-03-08T01:33:01.982Z,86.15
2023-03-08T01:34:01.977Z,86.01
2023-03-08T01:35:01.968Z,85.43
2023-03-08T01:36:02.041Z,85.94
2023-03-08T01:38:01.933Z,86.57
2023-03-08T01:39:01.937Z,86.74
2023-03-08T01:41:01.904Z,85.49
2023-03-08T01:42:01.888Z,85.66
2023-03-08T01:43:01.875Z,84.97
2023-03-08T01:44:01.864Z,84.97
2023-03-08T01:45:01.855Z,85.22
2023-03-08T01:47:01.834Z,86.01
2023-03-08T01:49:01.811Z,85.29
2023-03-08T01:50:01.804Z,85.60
2023-03-08T01:51:01.798Z,84.25
2023-03-08T01:52:01.778Z,85.29
2023-03-08T01:53:01.790Z,84.39
2023-03-08T01:54:01.758Z,86.15
2023-03-08T01:55:01.767Z,85.84
2023-03-08T01:56:01.749Z,85.94
2023-03-08T01:57:01.732Z,86.77
2023-03-08T01:58:01.723Z,85.74
2023-03-08T01:59:01.704Z,85.01
2023-03-08T02:00:01.707Z,85.84
2023-03-08T02:01:01.754Z,85.74
2023-03-08T02:09:01.599Z,85.08
2023-03-08T02:10:01.594Z,84.56
2023-03-08T02:11:01.612Z,84.60
2023-03-08T02:12:01.564Z,85.11
2023-03-08T02:13:01.553Z,85.80
2023-03-08T02:14:01.551Z,84.66
2023-03-08T02:16:54.904Z,85.11
2023-03-08T02:17:54.901Z,85.53
2023-03-08T02:19:54.877Z,85.91
2023-03-08T02:20:54.861Z,85.70
2023-03-08T02:24:54.821Z,84.21
2023-03-08T02:25:54.809Z,84.31
2023-03-08T02:26:54.919Z,84.21
2023-03-08T02:27:54.789Z,84.48
2023-03-08T02:28:54.777Z,83.34
2023-03-08T02:29:54.765Z,83.42
2023-03-08T02:30:54.759Z,85.70
2023-03-08T02:31:54.745Z,85.04
2023-03-08T02:33:54.726Z,84.27
2023-03-08T02:34:54.715Z,83.69
2023-03-08T02:35:54.774Z,83.79
2023-03-08T02:36:54.693Z,84.10
2023-03-08T02:37:54.681Z,83.79
2023-03-08T02:38:54.677Z,84.21
2023-03-08T02:39:54.659Z,83.89
2023-03-08T02:40:54.655Z,84.00
2023-03-08T02:41:54.638Z,84.17
2023-03-08T02:42:54.696Z,82.92
2023-03-08T02:43:54.620Z,83.75
2023-03-08T02:44:54.609Z,82.89
2023-03-08T02:45:54.595Z,82.30
2023-03-08T02:46:54.588Z,82.65
2023-03-08T02:47:54.577Z,84.41
2023-03-08T02:48:54.567Z,83.79
2023-03-08T02:49:54.549Z,83.69
2023-03-08T02:50:54.546Z,83.73
2023-03-08T02:51:54.530Z,84.10
2023-03-08T02:52:54.523Z,84.10
2023-03-08T02:53:54.507Z,84.31
2023-03-08T02:54:54.503Z,84.25
2023-03-08T02:55:54.486Z,84.87
2023-03-08T02:56:54.489Z,84.14
2023-03-08T02:57:54.471Z,86.07
2023-03-08T02:59:54.439Z,85.74
2023-03-08T03:00:54.434Z,86.12
2023-03-08T03:01:54.425Z,85.39
2023-03-08T03:03:54.405Z,85.60
2023-03-08T03:04:54.388Z,86.32
2023-03-08T03:05:54.378Z,85.24
2023-03-08T03:06:54.375Z,84.97
2023-03-08T03:07:54.358Z,85.76
2023-03-08T03:08:54.350Z,85.24
2023-03-08T03:09:54.336Z,85.18
2023-03-08T03:10:54.325Z,85.60
2023-03-08T03:11:54.329Z,85.29
2023-03-08T03:12:54.305Z,86.12
2023-03-08T03:13:54.289Z,86.28
2023-03-08T03:14:54.307Z,85.45
2023-03-08T03:15:54.283Z,85.55
2023-03-08T03:16:54.259Z,85.45
2023-03-08T03:19:54.224Z,85.70
2023-03-08T03:21:54.220Z,86.36
2023-03-08T03:22:54.192Z,87.19
2023-03-08T03:23:54.188Z,87.36
2023-03-08T03:28:54.125Z,86.77
2023-03-08T03:29:54.115Z,87.03
2023-03-08T03:31:54.096Z,87.75
2023-03-08T03:32:54.081Z,88.06
2023-03-08T03:33:54.070Z,88.02
2023-03-08T03:34:54.062Z,87.60
2023-03-08T03:35:54.086Z,87.57
2023-03-08T03:36:54.034Z,86.88
2023-03-08T03:37:54.024Z,86.98
2023-03-08T03:38:54.020Z,86.77
2023-03-08T03:39:54.002Z,87.60
2023-03-08T03:40:53.991Z,86.84
2023-03-08T03:42:53.974Z,86.67
2023-03-08T03:43:53.966Z,86.67
2023-03-08T03:44:53.950Z,86.77
2023-03-08T03:45:53.940Z,86.74
2023-03-08T03:46:53.966Z,86.53
2023-03-08T03:47:53.920Z,86.26
2023-03-08T03:48:53.923Z,87.26
2023-03-08T03:49:53.903Z,86.12
2023-03-08T03:50:53.895Z,86.22
2023-03-08T03:51:53.882Z,86.12
2023-03-08T03:52:53.873Z,86.90
2023-03-08T03:53:53.874Z,85.35
2023-03-08T03:57:53.825Z,85.66
2023-03-08T03:58:53.810Z,84.72
2023-03-08T03:59:53.798Z,84.89
2023-03-08T04:00:53.792Z,84.58
2023-03-08T04:01:53.787Z,84.38
2023-03-08T04:02:53.858Z,83.96
2023-03-08T04:03:53.835Z,84.27
2023-03-08T04:05:53.741Z,84.02
2023-03-08T04:06:53.727Z,83.23
2023-03-08T04:07:53.714Z,83.89
2023-03-08T04:08:53.707Z,84.46
2023-03-08T04:09:53.700Z,85.04
2023-03-08T04:10:53.683Z,84.72
2023-03-08T04:11:53.674Z,84.52
2023-03-08T04:12:53.664Z,84.41
2023-03-08T04:13:53.655Z,84.62
2023-03-08T04:14:53.642Z,84.93
2023-03-08T04:15:53.644Z,84.58
2023-03-08T04:16:53.621Z,84.64
2023-03-08T04:17:53.609Z,84.33
2023-03-08T04:18:53.623Z,83.99
2023-03-08T04:23:53.543Z,83.26
2023-03-08T04:24:53.540Z,82.44
2023-03-08T04:25:53.523Z,82.64
2023-03-08T04:26:53.514Z,81.54
2023-03-08T04:29:53.476Z,82.54
2023-03-08T04:30:53.472Z,82.23
2023-03-08T04:31:53.456Z,82.12
2023-03-08T04:32:53.448Z,82.12
2023-03-08T04:34:53.561Z,82.64
2023-03-08T04:36:53.406Z,82.44
2023-03-08T04:38:53.383Z,83.20
2023-03-08T04:41:53.351Z,83.51
2023-03-08T04:42:53.342Z,83.20
2023-03-08T04:43:53.331Z,83.61
2023-03-08T04:45:53.303Z,83.26
2023-03-08T04:46:53.426Z,83.36
2023-03-08T04:48:53.276Z,82.64
2023-03-08T04:50:53.280Z,83.20
2023-03-08T04:51:53.243Z,83.61
2023-03-08T04:52:53.231Z,83.78
2023-03-08T04:53:53.223Z,83.26
2023-03-08T04:54:53.212Z,83.20
2023-03-08T04:55:53.205Z,83.09
2023-03-08T04:56:53.192Z,83.61
2023-03-08T04:57:53.176Z,83.96
2023-03-08T04:58:53.216Z,84.06
2023-03-08T04:59:53.166Z,84.23
2023-03-08T05:02:53.122Z,84.38
2023-03-08T05:06:53.106Z,83.20
2023-03-08T05:07:53.068Z,83.34
2023-03-08T05:08:53.062Z,84.17
2023-03-08T05:09:53.045Z,83.86
2023-03-08T05:10:53.038Z,84.33
2023-03-08T05:11:53.027Z,84.33
2023-03-08T05:12:53.046Z,83.34
2023-03-08T05:13:53.009Z,83.17
2023-03-08T05:14:53.001Z,84.14
2023-03-08T05:17:52.969Z,86.05
2023-03-08T05:18:52.958Z,85.74
2023-03-08T05:19:52.946Z,86.05
2023-03-08T05:21:52.918Z,86.15
2023-03-08T05:22:59.042Z,86.26
2023-03-08T05:23:53.931Z,86.36
2023-03-08T05:24:52.991Z,86.15
2023-03-08T05:25:52.884Z,85.94
2023-03-08T05:26:52.862Z,86.15
2023-03-08T05:28:52.845Z,85.55
2023-03-08T05:34:52.776Z,83.75
2023-03-08T05:35:52.798Z,83.86
2023-03-08T05:36:52.764Z,83.86
2023-03-08T05:37:52.741Z,84.06
2023-03-08T05:39:52.724Z,83.41
2023-03-08T05:40:52.715Z,82.92
2023-03-08T05:43:52.688Z,83.86
2023-03-08T05:44:52.669Z,83.75
2023-03-08T05:45:52.755Z,84.06
2023-03-08T05:46:52.654Z,83.55
2023-03-08T05:47:52.635Z,83.75
2023-03-08T05:50:52.605Z,83.89
2023-03-08T05:52:52.586Z,84.52
2023-03-08T05:53:52.567Z,84.52
2023-03-08T05:54:52.692Z,84.41
2023-03-08T05:55:52.555Z,84.31
2023-03-08T05:56:52.539Z,84.06
2023-03-08T05:57:52.524Z,84.00
2023-03-08T05:58:52.513Z,84.56
2023-03-08T06:01:52.569Z,84.62
2023-03-08T06:02:52.629Z,84.83
2023-03-08T06:03:52.509Z,84.66
2023-03-08T06:05:52.468Z,84.77
2023-03-08T06:06:52.426Z,85.18
2023-03-08T06:07:52.413Z,85.39
2023-03-08T06:08:52.406Z,85.29
2023-03-08T06:09:52.401Z,85.39
2023-03-08T06:10:52.409Z,85.29
2023-03-08T06:11:52.377Z,84.97
2023-03-08T06:12:52.366Z,85.39
2023-03-08T06:13:52.353Z,85.39
2023-03-08T06:14:52.343Z,85.70
2023-03-08T06:15:52.330Z,85.43
2023-03-08T06:17:52.306Z,85.84
2023-03-08T06:18:52.297Z,86.36
2023-03-08T06:19:52.283Z,86.36
2023-03-08T06:21:52.268Z,86.95
2023-03-08T06:27:52.200Z,86.26
2023-03-08T06:28:52.195Z,86.05
2023-03-08T06:29:52.179Z,85.53
2023-03-08T06:30:52.252Z,87.19
2023-03-08T06:31:52.164Z,86.43
2023-03-08T06:37:52.100Z,86.29
2023-03-08T06:38:52.098Z,86.57
2023-03-08T06:40:52.072Z,86.88
2023-03-08T06:41:52.057Z,85.98
2023-03-08T06:42:52.169Z,86.71
2023-03-08T06:43:52.037Z,86.88
2023-03-08T06:44:52.027Z,86.46
2023-03-08T06:45:52.031Z,86.77
2023-03-08T06:53:51.940Z,85.63
2023-03-08T06:54:51.918Z,85.22
2023-03-08T06:55:51.911Z,85.57
2023-03-08T06:56:51.902Z,85.63
2023-03-08T07:01:51.844Z,85.53
2023-03-08T07:02:51.834Z,85.43
2023-03-08T07:03:51.832Z,84.80
2023-03-08T07:04:51.808Z,85.43
2023-03-08T07:05:51.801Z,85.32
2023-03-08T07:07:51.778Z,85.40
2023-03-08T07:08:51.765Z,86.09
2023-03-08T07:09:51.759Z,86.09
2023-03-08T07:10:51.743Z,85.88
2023-03-08T07:12:51.718Z,86.02
2023-03-08T07:13:51.708Z,86.40
2023-03-08T07:15:51.724Z,86.34
2023-03-08T07:17:51.667Z,86.51
2023-03-08T07:18:51.656Z,86.40
2023-03-08T07:19:51.649Z,85.84
2023-03-08T07:20:51.632Z,85.63
2023-03-08T07:21:51.623Z,85.63
2023-03-08T07:22:51.611Z,85.63
2023-03-08T07:25:51.586Z,84.04
2023-03-08T07:33:51.494Z,84.60
2023-03-08T07:34:51.483Z,84.39
2023-03-08T07:35:51.489Z,84.08
2023-03-08T07:36:51.461Z,83.94
2023-03-08T07:37:51.453Z,83.87
2023-03-08T07:38:51.441Z,83.77
2023-03-08T07:39:51.433Z,84.28
2023-03-08T07:40:51.420Z,83.66
2023-03-08T07:41:51.414Z,84.11
2023-03-08T07:42:51.399Z,84.49
2023-03-08T07:43:51.393Z,84.39
2023-03-08T07:46:51.488Z,84.49
2023-03-08T07:47:51.355Z,84.18
2023-03-08T07:48:53.541Z,83.94
2023-03-08T07:49:51.352Z,83.63
2023-03-08T07:51:51.307Z,84.60
2023-03-08T07:52:51.296Z,84.46
2023-03-08T07:53:51.287Z,83.73
2023-03-08T07:54:51.272Z,83.31
2023-03-08T07:55:51.273Z,84.04
2023-03-08T07:56:51.252Z,83.77
2023-03-08T07:57:51.241Z,83.66
2023-03-08T07:58:51.232Z,84.28
2023-03-08T08:02:51.223Z,83.97
2023-03-08T08:03:51.226Z,83.66
2023-03-08T08:04:51.260Z,84.18
2023-03-08T08:05:51.162Z,83.66
2023-03-08T08:06:51.146Z,83.83
2023-03-08T08:07:51.142Z,83.63
2023-03-08T08:08:51.125Z,83.83
2023-03-08T08:09:51.115Z,83.42
2023-03-08T08:10:51.118Z,84.14
2023-03-08T08:11:51.101Z,83.38
2023-03-08T08:12:51.095Z,82.96
2023-03-08T08:15:51.101Z,82.65
2023-03-08T08:16:51.039Z,82.44
2023-03-08T08:17:51.026Z,83.11
2023-03-08T08:19:51.003Z,82.59
2023-03-08T08:20:50.995Z,83.11
2023-03-08T08:21:50.984Z,83.27
2023-03-08T08:22:50.971Z,82.96
2023-03-08T08:23:50.970Z,82.90
2023-03-08T08:24:50.965Z,83.48
2023-03-08T08:25:50.953Z,83.06
2023-03-08T08:26:50.945Z,82.62
2023-03-08T08:27:50.918Z,83.25
2023-03-08T08:28:50.902Z,83.77
2023-03-08T08:31:50.935Z,83.77
2023-03-08T08:32:50.892Z,84.22
2023-03-08T08:33:50.854Z,84.49
2023-03-08T08:35:50.909Z,83.87
2023-03-08T08:36:50.816Z,84.49
2023-03-08T08:37:50.822Z,83.66
2023-03-08T08:42:50.753Z,83.00
2023-03-08T08:45:50.786Z,82.80
2023-03-08T08:46:50.710Z,83.11
2023-03-08T08:47:50.702Z,82.94
2023-03-08T08:48:50.686Z,83.14
2023-03-08T08:49:50.679Z,83.77
2023-03-08T08:50:50.686Z,84.04
2023-03-08T08:55:50.613Z,83.21
2023-03-08T08:56:50.603Z,83.38
2023-03-08T08:57:50.590Z,82.44
2023-03-08T08:58:50.587Z,82.13
2023-03-08T08:59:50.576Z,82.65
2023-03-08T09:00:50.557Z,82.20
2023-03-08T09:01:50.550Z,81.68
2023-03-08T09:02:50.656Z,81.45
2023-03-08T09:03:50.603Z,82.28
2023-03-08T09:04:50.585Z,82.80
2023-03-08T09:05:50.516Z,83.11
2023-03-08T09:06:50.518Z,83.11
2023-03-08T09:08:50.471Z,82.86
2023-03-08T09:09:50.463Z,82.55
2023-03-08T09:10:50.450Z,83.17
2023-03-08T09:11:54.985Z,83.17
2023-03-08T09:12:50.455Z,83.06
2023-03-08T09:13:50.424Z,82.13
2023-03-08T09:14:50.408Z,82.34
2023-03-08T09:16:50.442Z,82.23
2023-03-08T09:26:50.292Z,82.86
2023-03-08T09:27:50.301Z,82.09
2023-03-08T09:28:50.270Z,82.78
2023-03-08T09:29:50.262Z,81.37
2023-03-08T09:30:50.244Z,82.47
2023-03-08T09:31:50.277Z,81.06
2023-03-08T09:32:50.253Z,81.82
2023-03-08T09:33:50.213Z,81.92
2023-03-08T09:34:50.212Z,82.44
2023-03-08T09:35:50.211Z,82.51
2023-03-08T09:36:50.181Z,81.26
2023-03-08T09:37:50.171Z,82.20
2023-03-08T09:38:50.181Z,81.89
2023-03-08T09:39:50.153Z,82.26
2023-03-08T09:40:50.140Z,81.54
2023-03-08T09:41:50.129Z,81.19
2023-03-08T09:42:50.118Z,81.09
2023-03-08T09:43:50.134Z,80.36
2023-03-08T09:44:50.096Z,80.02
2023-03-08T09:45:50.109Z,81.57
2023-03-08T09:46:50.073Z,81.57
2023-03-08T09:47:50.116Z,81.20
2023-03-08T09:50:50.036Z,82.06
2023-03-08T09:56:49.968Z,80.81
2023-03-08T09:59:49.931Z,80.92
2023-03-08T10:00:49.984Z,81.05
2023-03-08T10:01:49.910Z,79.63
2023-03-08T10:02:49.925Z,79.50
2023-03-08T10:03:49.924Z,79.33
2023-03-08T10:04:54.812Z,80.57
2023-03-08T10:05:50.911Z,79.91
2023-03-08T10:06:49.852Z,79.70
2023-03-08T10:09:49.818Z,80.71
2023-03-08T10:10:49.840Z,80.98
2023-03-08T10:11:49.800Z,80.67
2023-03-08T10:15:49.760Z,80.29
2023-03-08T10:16:49.845Z,80.74
2023-03-08T10:17:49.733Z,79.74
2023-03-08T10:18:49.736Z,79.54
2023-03-08T10:20:49.708Z,81.06
2023-03-08T10:21:49.688Z,82.40
2023-03-08T10:26:49.651Z,82.72
2023-03-08T10:31:49.584Z,81.23
2023-03-08T10:32:49.669Z,81.37
2023-03-08T10:33:49.561Z,81.57
2023-03-08T10:38:49.508Z,80.88
2023-03-08T10:39:49.508Z,80.15
2023-03-08T10:40:49.511Z,79.98
2023-03-08T10:41:49.476Z,80.36
2023-03-08T10:43:49.480Z,80.81
2023-03-08T10:44:49.448Z,80.81
2023-03-08T10:45:49.457Z,81.23
2023-03-08T10:46:49.426Z,81.71
2023-03-08T10:47:49.413Z,80.57
2023-03-08T10:49:49.405Z,79.87
2023-03-08T10:50:49.383Z,79.40
2023-03-08T10:52:49.359Z,79.43
2023-03-08T10:57:49.307Z,80.67
2023-03-08T10:58:49.331Z,80.15
2023-03-08T10:59:49.282Z,79.50
2023-03-08T11:00:49.274Z,79.94
2023-03-08T11:01:49.265Z,80.60
2023-03-08T11:02:49.253Z,81.29
2023-03-08T11:03:49.240Z,79.94
2023-03-08T11:04:49.332Z,80.15
2023-03-08T11:05:49.218Z,80.84
2023-03-08T11:07:49.194Z,78.88
2023-03-08T11:16:49.130Z,78.94
2023-03-08T11:17:49.089Z,79.36
2023-03-08T11:20:49.058Z,80.49
2023-03-08T11:21:49.045Z,79.29
2023-03-08T11:22:49.044Z,77.66
2023-03-08T11:24:49.021Z,77.49
2023-03-08T11:25:49.022Z,79.56
2023-03-08T11:26:49.061Z,78.56
2023-03-08T11:37:48.879Z,76.66
2023-03-08T11:38:48.879Z,76.53
2023-03-08T11:40:48.856Z,76.66
2023-03-08T11:41:48.831Z,76.28
2023-03-08T11:42:48.819Z,77.87
2023-03-08T11:43:48.809Z,77.66
2023-03-08T11:44:48.807Z,77.53
2023-03-08T11:45:48.787Z,77.97
2023-03-08T11:46:48.842Z,77.56
2023-03-08T11:48:48.815Z,78.36
2023-03-08T11:49:48.747Z,78.46
2023-03-08T11:51:48.725Z,79.05
2023-03-08T11:52:48.713Z,79.94
2023-03-08T11:53:48.709Z,80.12
2023-03-08T11:55:48.676Z,78.98
2023-03-08T12:00:48.622Z,80.43
2023-03-08T12:01:48.611Z,79.60
2023-03-08T12:02:48.684Z,80.53
2023-03-08T12:03:48.696Z,79.87
2023-03-08T12:04:48.780Z,79.08
2023-03-08T12:05:48.672Z,79.12
2023-03-08T12:06:48.699Z,79.88
2023-03-08T12:07:48.585Z,80.60
2023-03-08T12:08:48.568Z,80.71
2023-03-08T12:09:48.600Z,80.71
2023-03-08T12:10:48.512Z,81.71
2023-03-08T12:11:48.499Z,80.26
2023-03-08T12:12:48.495Z,80.15
2023-03-08T12:13:48.478Z,79.94
2023-03-08T12:14:48.468Z,79.67
2023-03-08T12:15:48.455Z,79.81
2023-03-08T12:21:48.390Z,80.43
2023-03-08T12:22:48.471Z,80.43
2023-03-08T12:23:48.400Z,81.02
2023-03-08T12:24:48.359Z,80.29
2023-03-08T12:26:48.369Z,80.40
2023-03-08T12:27:48.373Z,80.36
2023-03-08T12:28:48.317Z,79.54
2023-03-08T12:29:48.342Z,80.50
2023-03-08T12:30:48.299Z,80.29
2023-03-08T12:31:48.457Z,80.67
2023-03-08T12:32:48.567Z,80.46
2023-03-08T12:33:48.328Z,80.05
2023-03-08T12:36:48.390Z,79.84
2023-03-08T12:37:48.222Z,79.94
2023-03-08T12:38:48.213Z,79.80
2023-03-08T12:39:48.219Z,79.50
2023-03-08T12:40:48.265Z,79.74
2023-03-08T12:41:48.227Z,79.91
2023-03-08T12:42:48.172Z,79.19
2023-03-08T12:43:48.156Z,80.29
2023-03-08T12:44:48.154Z,80.95
2023-03-08T12:45:48.185Z,79.26
2023-03-08T12:47:01.709Z,79.36
2023-03-08T12:47:49.198Z,78.46
2023-03-08T12:48:48.131Z,79.74
2023-03-08T12:49:48.169Z,79.84
2023-03-08T12:50:48.109Z,80.26
2023-03-08T12:51:48.117Z,80.36
2023-03-08T12:53:48.050Z,79.80
2023-03-08T12:54:48.043Z,79.74
2023-03-08T12:55:48.029Z,79.91
2023-03-08T12:56:48.022Z,79.63
2023-03-08T12:57:48.009Z,80.15
2023-03-08T12:58:48.001Z,79.54
2023-03-08T12:59:47.984Z,80.15
2023-03-08T13:01:47.970Z,80.29
2023-03-08T13:02:47.960Z,80.81
2023-03-08T13:05:47.923Z,80.36
2023-03-08T13:07:47.901Z,79.91
2023-03-08T13:10:47.874Z,80.43
2023-03-08T13:13:47.900Z,79.56
2023-03-08T13:16:47.924Z,78.94
2023-03-08T13:17:47.798Z,79.05
2023-03-08T13:20:47.763Z,78.94
2023-03-08T13:24:47.785Z,79.50
2023-03-08T13:25:49.903Z,79.94
2023-03-08T13:26:50.599Z,79.94
2023-03-08T13:27:47.803Z,80.26
2023-03-08T13:28:48.593Z,79.94
2023-03-08T13:29:47.747Z,80.60
2023-03-08T13:30:47.684Z,80.88
2023-03-08T13:31:47.646Z,80.67
2023-03-08T13:33:47.640Z,80.26
2023-03-08T13:34:47.614Z,80.26
2023-03-08T13:35:47.623Z,80.67
2023-03-08T13:36:47.590Z,80.81
2023-03-08T13:37:47.674Z,80.92
2023-03-08T13:38:47.593Z,81.61
2023-03-08T13:39:47.557Z,80.50
2023-03-08T13:40:47.547Z,81.61
2023-03-08T13:41:47.536Z,80.78
2023-03-08T13:42:47.526Z,80.53
2023-03-08T13:43:47.516Z,80.43
2023-03-08T13:44:47.504Z,79.56
2023-03-08T13:45:47.509Z,79.46
2023-03-08T13:46:47.482Z,80.22
2023-03-08T13:47:47.474Z,79.84
2023-03-08T13:48:47.460Z,80.32
2023-03-08T13:50:47.440Z,81.05
2023-03-08T13:51:47.444Z,80.05
2023-03-08T13:52:47.419Z,80.15
2023-03-08T13:53:47.476Z,80.67
2023-03-08T13:54:47.458Z,81.71
2023-03-08T13:59:47.344Z,80.43
2023-03-08T14:01:47.341Z,79.80
2023-03-08T14:02:47.386Z,79.80
2023-03-08T14:03:47.300Z,80.12
2023-03-08T14:04:47.362Z,80.12
2023-03-08T14:05:47.350Z,79.98
2023-03-08T14:06:47.277Z,79.50
2023-03-08T14:07:47.254Z,80.29
2023-03-08T14:09:47.231Z,80.29
2023-03-08T14:10:47.261Z,80.01
2023-03-08T14:11:47.209Z,80.74
2023-03-08T14:12:47.207Z,79.80
2023-03-08T14:15:47.273Z,79.87
2023-03-08T14:17:47.142Z,79.63
2023-03-08T14:18:47.135Z,78.91
2023-03-08T14:19:47.121Z,79.01
2023-03-08T14:20:47.115Z,79.22
2023-03-08T14:21:47.100Z,79.11
2023-03-08T14:22:47.138Z,79.15
2023-03-08T14:23:47.177Z,79.46
2023-03-08T14:24:47.116Z,79.15
2023-03-08T14:28:47.056Z,79.01
2023-03-08T14:30:47.093Z,78.84
2023-03-08T14:34:46.982Z,79.43
2023-03-08T14:35:46.966Z,79.32
2023-03-08T14:36:46.937Z,79.22
2023-03-08T14:37:46.925Z,78.94
2023-03-08T14:38:46.915Z,79.15
2023-03-08T14:39:46.916Z,79.66
2023-03-08T14:41:46.889Z,80.18
2023-03-08T14:42:46.911Z,79.46
2023-03-08T14:43:46.858Z,79.46
2023-03-08T14:44:46.849Z,79.46
2023-03-08T14:45:46.841Z,79.66
2023-03-08T14:46:46.857Z,79.46
2023-03-08T14:47:46.824Z,79.36
2023-03-08T14:48:46.829Z,79.74
2023-03-08T14:49:46.795Z,80.98
2023-03-08T14:50:46.787Z,80.57
2023-03-08T14:51:46.766Z,81.05
2023-03-08T14:52:46.768Z,80.63
2023-03-08T14:53:46.747Z,80.32
2023-03-08T14:55:46.726Z,80.29
2023-03-08T15:00:46.673Z,80.98
2023-03-08T15:01:46.723Z,82.02
2023-03-08T15:02:46.649Z,82.02
2023-03-08T15:03:46.745Z,80.78
2023-03-08T15:04:46.632Z,81.36
2023-03-08T15:05:46.653Z,81.12
2023-03-08T15:06:46.620Z,80.49
2023-03-08T15:07:46.594Z,80.60
2023-03-08T15:08:46.584Z,79.98
2023-03-08T15:09:46.571Z,80.60
2023-03-08T15:13:46.527Z,80.18
2023-03-08T15:14:46.545Z,79.46
2023-03-08T15:16:46.494Z,79.66
2023-03-08T15:17:46.494Z,80.08
2023-03-08T15:18:46.473Z,80.08
2023-03-08T15:19:46.464Z,80.29
2023-03-08T15:20:46.451Z,80.08
2023-03-08T15:21:46.445Z,80.12
2023-03-08T15:22:46.428Z,80.63
2023-03-08T15:23:46.420Z,80.43
2023-03-08T15:24:46.406Z,80.43
2023-03-08T15:25:46.397Z,80.53
2023-03-08T15:26:46.392Z,80.84
2023-03-08T15:27:48.729Z,80.53
2023-03-08T15:28:46.366Z,80.74
2023-03-08T15:29:46.359Z,80.63
2023-03-08T15:30:46.375Z,81.15
2023-03-08T15:36:46.277Z,80.95
2023-03-08T15:37:46.266Z,81.01
2023-03-08T15:42:46.211Z,80.29
2023-03-08T15:45:46.178Z,81.36
2023-03-08T15:46:46.258Z,81.78
2023-03-08T15:48:46.155Z,80.63
2023-03-08T15:49:46.138Z,80.95
2023-03-08T15:50:46.126Z,81.26
2023-03-08T15:51:46.111Z,81.05
2023-03-08T15:52:46.101Z,81.05
2023-03-08T15:55:46.070Z,82.46
2023-03-08T16:00:46.013Z,80.84
2023-03-08T16:01:46.047Z,81.05
2023-03-08T16:05:45.960Z,81.08
2023-03-08T16:06:45.948Z,79.87
2023-03-08T16:10:45.906Z,79.63
2023-03-08T16:13:45.878Z,79.84
2023-03-08T16:14:45.905Z,79.84
2023-03-08T16:15:45.854Z,79.46
2023-03-08T16:16:46.225Z,80.29
2023-03-08T16:17:45.842Z,79.87
2023-03-08T16:18:45.845Z,81.22
2023-03-08T16:19:45.818Z,80.18
2023-03-08T16:26:45.746Z,79.87
2023-03-08T16:27:45.730Z,80.08
2023-03-08T16:33:45.673Z,80.39
2023-03-08T16:34:45.681Z,80.60
2023-03-08T16:35:45.662Z,80.91
2023-03-08T16:37:45.626Z,80.70
2023-03-08T16:38:45.615Z,80.39
2023-03-08T16:39:45.605Z,80.15
2023-03-08T16:40:45.595Z,79.56
2023-03-08T16:41:45.580Z,80.08
2023-03-08T16:42:45.570Z,80.81
2023-03-08T16:43:48.266Z,81.09
2023-03-08T16:44:45.577Z,81.78
2023-03-08T16:45:45.562Z,81.57
2023-03-08T16:47:45.513Z,80.95
2023-03-08T16:49:45.490Z,81.32
2023-03-08T16:54:45.448Z,81.73
2023-03-08T16:55:45.425Z,80.91
2023-03-08T16:56:45.418Z,81.22
2023-03-08T16:57:45.403Z,80.91
2023-03-08T16:58:45.393Z,81.32
2023-03-08T17:00:45.370Z,81.15
2023-03-08T17:01:45.363Z,81.36
2023-03-08T17:02:45.591Z,81.46
2023-03-08T17:04:45.328Z,81.01
2023-03-08T17:05:45.320Z,80.84
2023-03-08T17:06:45.321Z,81.78
2023-03-08T17:07:45.295Z,81.73
2023-03-08T17:11:45.253Z,80.81
2023-03-08T17:12:45.241Z,81.88
2023-03-08T17:15:45.226Z,81.57
2023-03-08T17:16:45.198Z,81.92
2023-03-08T17:17:45.191Z,83.47
2023-03-08T17:18:45.175Z,82.64
2023-03-08T17:19:45.167Z,82.64
2023-03-08T17:20:45.154Z,82.50
2023-03-08T17:21:45.148Z,82.39
2023-03-08T17:22:45.157Z,82.60
2023-03-08T17:23:45.123Z,81.98
2023-03-08T17:24:45.113Z,82.18
2023-03-08T17:25:45.106Z,81.88
2023-03-08T17:26:45.090Z,82.33
2023-03-08T17:27:45.081Z,83.33
2023-03-08T17:28:45.082Z,82.81
2023-03-08T17:29:45.061Z,82.39
2023-03-08T17:31:45.049Z,82.25
2023-03-08T17:32:45.102Z,81.88
2023-03-08T17:33:45.031Z,81.46
2023-03-08T17:34:45.006Z,81.61
2023-03-08T17:36:45.037Z,82.64
2023-03-08T17:37:44.988Z,82.60
2023-03-08T17:38:44.987Z,82.70
2023-03-08T17:39:44.955Z,81.88
2023-03-08T17:40:44.944Z,81.98
2023-03-08T17:41:44.932Z,82.18
2023-03-08T17:42:44.923Z,81.73
2023-03-08T17:43:44.917Z,81.43
2023-03-08T17:44:44.901Z,81.46
2023-03-08T17:45:44.891Z,81.84
2023-03-08T17:46:44.880Z,81.64
2023-03-08T17:49:44.850Z,81.73
2023-03-08T17:50:44.837Z,81.64
2023-03-08T17:51:44.826Z,81.43
2023-03-08T17:53:44.816Z,81.64
2023-03-08T17:54:44.814Z,81.26
2023-03-08T17:55:44.790Z,81.88
2023-03-08T17:56:44.772Z,82.39
2023-03-08T18:00:44.743Z,83.22
2023-03-08T18:01:44.725Z,83.26
2023-03-08T18:02:44.777Z,82.64
2023-03-08T18:04:44.782Z,83.82
2023-03-08T18:06:44.677Z,83.82
2023-03-08T18:07:44.664Z,83.72
2023-03-08T18:08:44.651Z,83.72
2023-03-08T18:09:44.645Z,83.41
2023-03-08T18:10:44.654Z,83.09
2023-03-08T18:11:44.619Z,83.34
2023-03-08T18:12:44.607Z,84.40
2023-03-08T18:13:44.596Z,82.89
2023-03-08T18:14:44.587Z,83.51
2023-03-08T18:15:44.622Z,83.41
2023-03-08T18:16:44.571Z,82.85
2023-03-08T18:17:44.557Z,83.05
2023-03-08T18:18:44.567Z,82.64
2023-03-08T18:19:44.559Z,83.09
2023-03-08T18:20:44.568Z,82.92
2023-03-08T18:21:44.549Z,84.10
2023-03-08T18:22:44.516Z,84.89
2023-03-08T18:23:44.496Z,84.13
2023-03-08T18:26:44.504Z,83.61
2023-03-08T18:27:44.450Z,83.96
2023-03-08T18:28:44.439Z,83.86
2023-03-08T18:29:44.429Z,84.23
2023-03-08T18:30:44.412Z,83.51
2023-03-08T18:31:44.401Z,82.68
2023-03-08T18:32:44.515Z,82.99
2023-03-08T18:34:44.366Z,83.09